sensor_id;sensor_type;location;lat;lon;timestamp;P1;durP1;ratioP1;P2;durP2;ratioP2
12267;SDS011;6196;48.398;11.736;2024-02-26T00:00:11;22.23;;;14.63;;
12267;SDS011;6196;48.398;11.736;2024-02-26T00:02:38;18.97;;;12.93;;
12267;SDS011;6196;48.398;11.736;2024-02-26T00:05:06;19.43;;;13.70;;
12267;SDS011;6196;48.398;11.736;2024-02-26T00:07:34;23.43;;;13.77;;
12267;SDS011;6196;48.398;11.736;2024-02-26T00:10:01;21.00;;;14.00;;
12267;SDS011;6196;48.398;11.736;2024-02-26T00:12:28;20.13;;;12.90;;
12267;SDS011;6196;48.398;11.736;2024-02-26T00:14:55;18.87;;;12.17;;
12267;SDS011;6196;48.398;11.736;2024-02-26T00:17:24;21.10;;;13.10;;
12267;SDS011;6196;48.398;11.736;2024-02-26T00:19:51;21.67;;;13.40;;
12267;SDS011;6196;48.398;11.736;2024-02-26T00:22:19;19.17;;;13.10;;
12267;SDS011;6196;48.398;11.736;2024-02-26T00:24:46;19.43;;;13.20;;
12267;SDS011;6196;48.398;11.736;2024-02-26T00:27:13;21.10;;;12.93;;
12267;SDS011;6196;48.398;11.736;2024-02-26T00:29:40;19.57;;;12.77;;
12267;SDS011;6196;48.398;11.736;2024-02-26T00:32:07;18.33;;;13.07;;
12267;SDS011;6196;48.398;11.736;2024-02-26T00:34:34;20.37;;;12.37;;
12267;SDS011;6196;48.398;11.736;2024-02-26T00:37:01;20.57;;;14.10;;
12267;SDS011;6196;48.398;11.736;2024-02-26T00:39:28;20.00;;;13.70;;
12267;SDS011;6196;48.398;11.736;2024-02-26T00:41:55;18.73;;;12.20;;
12267;SDS011;6196;48.398;11.736;2024-02-26T00:44:23;18.97;;;14.00;;
12267;SDS011;6196;48.398;11.736;2024-02-26T00:46:50;17.57;;;12.67;;
12267;SDS011;6196;48.398;11.736;2024-02-26T00:49:17;18.23;;;12.17;;
12267;SDS011;6196;48.398;11.736;2024-02-26T00:51:44;19.17;;;13.00;;
12267;SDS011;6196;48.398;11.736;2024-02-26T00:54:11;19.27;;;13.10;;
12267;SDS011;6196;48.398;11.736;2024-02-26T00:56:38;18.23;;;12.50;;
12267;SDS011;6196;48.398;11.736;2024-02-26T00:59:04;17.90;;;12.07;;
12267;SDS011;6196;48.398;11.736;2024-02-26T01:01:32;19.13;;;12.50;;
12267;SDS011;6196;48.398;11.736;2024-02-26T01:03:59;19.63;;;12.23;;
12267;SDS011;6196;48.398;11.736;2024-02-26T01:06:26;18.87;;;12.87;;
12267;SDS011;6196;48.398;11.736;2024-02-26T01:08:53;20.40;;;13.30;;
12267;SDS011;6196;48.398;11.736;2024-02-26T01:11:20;17.40;;;12.27;;
12267;SDS011;6196;48.398;11.736;2024-02-26T01:13:47;20.20;;;12.53;;
12267;SDS011;6196;48.398;11.736;2024-02-26T01:16:14;18.50;;;12.07;;
12267;SDS011;6196;48.398;11.736;2024-02-26T01:18:41;18.10;;;12.23;;
12267;SDS011;6196;48.398;11.736;2024-02-26T01:21:08;17.20;;;11.97;;
12267;SDS011;6196;48.398;11.736;2024-02-26T01:23:35;18.67;;;12.30;;
12267;SDS011;6196;48.398;11.736;2024-02-26T01:26:02;17.10;;;11.67;;
12267;SDS011;6196;48.398;11.736;2024-02-26T01:28:30;18.67;;;12.70;;
12267;SDS011;6196;48.398;11.736;2024-02-26T01:30:57;18.00;;;11.27;;
12267;SDS011;6196;48.398;11.736;2024-02-26T01:33:26;16.47;;;11.63;;
12267;SDS011;6196;48.398;11.736;2024-02-26T01:35:53;16.00;;;11.57;;
12267;SDS011;6196;48.398;11.736;2024-02-26T01:38:20;16.43;;;11.47;;
12267;SDS011;6196;48.398;11.736;2024-02-26T01:40:47;16.23;;;12.03;;
12267;SDS011;6196;48.398;11.736;2024-02-26T01:43:14;19.20;;;13.00;;
12267;SDS011;6196;48.398;11.736;2024-02-26T01:45:41;17.77;;;13.07;;
12267;SDS011;6196;48.398;11.736;2024-02-26T01:48:07;25.13;;;14.73;;
12267;SDS011;6196;48.398;11.736;2024-02-26T01:50:37;27.33;;;16.07;;
12267;SDS011;6196;48.398;11.736;2024-02-26T01:53:04;19.90;;;13.47;;
12267;SDS011;6196;48.398;11.736;2024-02-26T01:55:31;21.07;;;13.70;;
12267;SDS011;6196;48.398;11.736;2024-02-26T01:57:59;18.87;;;12.37;;
12267;SDS011;6196;48.398;11.736;2024-02-26T02:00:27;16.00;;;11.70;;
12267;SDS011;6196;48.398;11.736;2024-02-26T02:02:54;16.73;;;11.73;;
12267;SDS011;6196;48.398;11.736;2024-02-26T02:05:21;16.07;;;11.70;;
12267;SDS011;6196;48.398;11.736;2024-02-26T02:07:49;18.83;;;12.87;;
12267;SDS011;6196;48.398;11.736;2024-02-26T02:10:17;17.63;;;13.10;;
12267;SDS011;6196;48.398;11.736;2024-02-26T02:12:49;18.70;;;12.90;;
12267;SDS011;6196;48.398;11.736;2024-02-26T02:15:16;18.87;;;11.77;;
12267;SDS011;6196;48.398;11.736;2024-02-26T02:17:43;17.13;;;12.43;;
12267;SDS011;6196;48.398;11.736;2024-02-26T02:20:24;17.63;;;12.43;;
12267;SDS011;6196;48.398;11.736;2024-02-26T02:23:00;17.27;;;12.23;;
12267;SDS011;6196;48.398;11.736;2024-02-26T02:25:28;18.17;;;12.80;;
12267;SDS011;6196;48.398;11.736;2024-02-26T02:27:55;19.73;;;13.10;;
12267;SDS011;6196;48.398;11.736;2024-02-26T02:30:24;17.60;;;12.57;;
12267;SDS011;6196;48.398;11.736;2024-02-26T02:32:55;17.73;;;12.33;;
12267;SDS011;6196;48.398;11.736;2024-02-26T02:35:25;18.40;;;12.60;;
12267;SDS011;6196;48.398;11.736;2024-02-26T02:37:52;16.83;;;12.30;;
12267;SDS011;6196;48.398;11.736;2024-02-26T02:40:19;20.20;;;11.90;;
12267;SDS011;6196;48.398;11.736;2024-02-26T02:42:46;15.47;;;10.73;;
12267;SDS011;6196;48.398;11.736;2024-02-26T02:45:13;18.43;;;12.20;;
12267;SDS011;6196;48.398;11.736;2024-02-26T02:47:40;17.50;;;11.77;;
12267;SDS011;6196;48.398;11.736;2024-02-26T02:50:07;18.70;;;12.30;;
12267;SDS011;6196;48.398;11.736;2024-02-26T02:52:35;14.77;;;11.03;;
12267;SDS011;6196;48.398;11.736;2024-02-26T02:55:02;18.60;;;11.43;;
12267;SDS011;6196;48.398;11.736;2024-02-26T02:57:29;16.67;;;11.80;;
12267;SDS011;6196;48.398;11.736;2024-02-26T02:59:57;15.37;;;11.80;;
12267;SDS011;6196;48.398;11.736;2024-02-26T03:02:24;14.20;;;11.07;;
12267;SDS011;6196;48.398;11.736;2024-02-26T03:04:51;16.20;;;10.83;;
12267;SDS011;6196;48.398;11.736;2024-02-26T03:07:18;15.33;;;10.50;;
12267;SDS011;6196;48.398;11.736;2024-02-26T03:09:45;14.47;;;9.80;;
12267;SDS011;6196;48.398;11.736;2024-02-26T03:12:12;14.40;;;10.60;;
12267;SDS011;6196;48.398;11.736;2024-02-26T03:14:39;13.60;;;9.70;;
12267;SDS011;6196;48.398;11.736;2024-02-26T03:17:06;14.33;;;9.83;;
12267;SDS011;6196;48.398;11.736;2024-02-26T03:19:33;14.93;;;9.63;;
12267;SDS011;6196;48.398;11.736;2024-02-26T03:22:00;14.47;;;10.30;;
12267;SDS011;6196;48.398;11.736;2024-02-26T03:24:27;13.77;;;10.53;;
12267;SDS011;6196;48.398;11.736;2024-02-26T03:26:54;13.80;;;9.50;;
12267;SDS011;6196;48.398;11.736;2024-02-26T03:29:21;15.27;;;10.57;;
12267;SDS011;6196;48.398;11.736;2024-02-26T03:31:48;14.60;;;9.87;;
12267;SDS011;6196;48.398;11.736;2024-02-26T03:34:15;13.57;;;9.77;;
12267;SDS011;6196;48.398;11.736;2024-02-26T03:36:43;16.90;;;10.67;;
12267;SDS011;6196;48.398;11.736;2024-02-26T03:39:10;13.37;;;9.40;;
12267;SDS011;6196;48.398;11.736;2024-02-26T03:41:38;13.77;;;9.40;;
12267;SDS011;6196;48.398;11.736;2024-02-26T03:44:05;13.17;;;9.10;;
12267;SDS011;6196;48.398;11.736;2024-02-26T03:46:31;13.20;;;8.77;;
12267;SDS011;6196;48.398;11.736;2024-02-26T03:48:58;13.23;;;9.13;;
12267;SDS011;6196;48.398;11.736;2024-02-26T03:51:25;15.27;;;9.10;;
12267;SDS011;6196;48.398;11.736;2024-02-26T03:53:57;12.50;;;9.30;;
12267;SDS011;6196;48.398;11.736;2024-02-26T03:56:25;15.73;;;9.00;;
12267;SDS011;6196;48.398;11.736;2024-02-26T03:58:53;11.80;;;8.63;;
12267;SDS011;6196;48.398;11.736;2024-02-26T04:01:20;14.80;;;9.03;;
12267;SDS011;6196;48.398;11.736;2024-02-26T04:03:47;13.77;;;9.07;;
12267;SDS011;6196;48.398;11.736;2024-02-26T04:06:14;12.27;;;8.07;;
12267;SDS011;6196;48.398;11.736;2024-02-26T04:08:41;13.17;;;9.03;;
12267;SDS011;6196;48.398;11.736;2024-02-26T04:11:08;11.77;;;8.80;;
12267;SDS011;6196;48.398;11.736;2024-02-26T04:13:36;11.70;;;8.73;;
12267;SDS011;6196;48.398;11.736;2024-02-26T04:16:06;12.93;;;9.37;;
12267;SDS011;6196;48.398;11.736;2024-02-26T04:18:33;11.80;;;8.67;;
12267;SDS011;6196;48.398;11.736;2024-02-26T04:21:00;14.10;;;10.43;;
12267;SDS011;6196;48.398;11.736;2024-02-26T04:23:27;13.63;;;10.07;;
12267;SDS011;6196;48.398;11.736;2024-02-26T04:25:54;14.50;;;9.13;;
12267;SDS011;6196;48.398;11.736;2024-02-26T04:28:21;11.83;;;9.70;;
12267;SDS011;6196;48.398;11.736;2024-02-26T04:30:48;11.47;;;8.23;;
12267;SDS011;6196;48.398;11.736;2024-02-26T04:33:14;16.87;;;9.80;;
12267;SDS011;6196;48.398;11.736;2024-02-26T04:35:42;14.07;;;9.47;;
12267;SDS011;6196;48.398;11.736;2024-02-26T04:38:09;12.43;;;8.57;;
12267;SDS011;6196;48.398;11.736;2024-02-26T04:40:35;13.00;;;8.57;;
12267;SDS011;6196;48.398;11.736;2024-02-26T04:43:02;11.60;;;8.70;;
12267;SDS011;6196;48.398;11.736;2024-02-26T04:45:30;12.77;;;8.70;;
12267;SDS011;6196;48.398;11.736;2024-02-26T04:47:57;12.90;;;9.47;;
12267;SDS011;6196;48.398;11.736;2024-02-26T04:50:23;12.97;;;8.90;;
12267;SDS011;6196;48.398;11.736;2024-02-26T04:52:50;11.50;;;9.27;;
12267;SDS011;6196;48.398;11.736;2024-02-26T04:55:17;12.43;;;9.83;;
12267;SDS011;6196;48.398;11.736;2024-02-26T04:57:44;13.17;;;10.43;;
12267;SDS011;6196;48.398;11.736;2024-02-26T05:00:11;11.97;;;9.43;;
12267;SDS011;6196;48.398;11.736;2024-02-26T05:02:39;12.97;;;9.20;;
12267;SDS011;6196;48.398;11.736;2024-02-26T05:05:06;11.37;;;8.43;;
12267;SDS011;6196;48.398;11.736;2024-02-26T05:07:39;11.10;;;9.10;;
12267;SDS011;6196;48.398;11.736;2024-02-26T05:10:08;13.30;;;8.37;;
12267;SDS011;6196;48.398;11.736;2024-02-26T05:12:35;12.63;;;8.73;;
12267;SDS011;6196;48.398;11.736;2024-02-26T05:15:03;11.50;;;8.50;;
12267;SDS011;6196;48.398;11.736;2024-02-26T05:17:30;12.63;;;8.87;;
12267;SDS011;6196;48.398;11.736;2024-02-26T05:19:57;11.97;;;9.13;;
12267;SDS011;6196;48.398;11.736;2024-02-26T05:22:24;11.13;;;8.37;;
12267;SDS011;6196;48.398;11.736;2024-02-26T05:24:51;11.37;;;8.80;;
12267;SDS011;6196;48.398;11.736;2024-02-26T05:27:18;12.33;;;8.70;;
12267;SDS011;6196;48.398;11.736;2024-02-26T05:29:45;11.90;;;9.00;;
12267;SDS011;6196;48.398;11.736;2024-02-26T05:32:12;12.30;;;9.17;;
12267;SDS011;6196;48.398;11.736;2024-02-26T05:34:39;11.53;;;8.60;;
12267;SDS011;6196;48.398;11.736;2024-02-26T05:37:07;11.97;;;8.93;;
12267;SDS011;6196;48.398;11.736;2024-02-26T05:39:34;11.70;;;8.43;;
12267;SDS011;6196;48.398;11.736;2024-02-26T05:42:01;11.07;;;8.67;;
12267;SDS011;6196;48.398;11.736;2024-02-26T05:44:29;13.13;;;9.67;;
12267;SDS011;6196;48.398;11.736;2024-02-26T05:46:56;13.53;;;8.83;;
12267;SDS011;6196;48.398;11.736;2024-02-26T05:49:23;12.83;;;8.83;;
12267;SDS011;6196;48.398;11.736;2024-02-26T05:51:50;11.90;;;9.13;;
12267;SDS011;6196;48.398;11.736;2024-02-26T05:54:17;14.93;;;9.43;;
12267;SDS011;6196;48.398;11.736;2024-02-26T05:56:44;11.57;;;9.07;;
12267;SDS011;6196;48.398;11.736;2024-02-26T05:59:11;13.20;;;9.13;;
12267;SDS011;6196;48.398;11.736;2024-02-26T06:01:38;12.67;;;9.27;;
12267;SDS011;6196;48.398;11.736;2024-02-26T06:04:04;12.30;;;8.60;;
12267;SDS011;6196;48.398;11.736;2024-02-26T06:06:32;14.20;;;9.43;;
12267;SDS011;6196;48.398;11.736;2024-02-26T06:08:59;12.57;;;8.63;;
12267;SDS011;6196;48.398;11.736;2024-02-26T06:11:26;13.17;;;9.00;;
12267;SDS011;6196;48.398;11.736;2024-02-26T06:13:53;16.57;;;10.67;;
12267;SDS011;6196;48.398;11.736;2024-02-26T06:16:20;12.27;;;9.40;;
12267;SDS011;6196;48.398;11.736;2024-02-26T06:18:47;12.53;;;9.73;;
12267;SDS011;6196;48.398;11.736;2024-02-26T06:21:14;13.03;;;9.27;;
12267;SDS011;6196;48.398;11.736;2024-02-26T06:23:41;14.13;;;9.40;;
12267;SDS011;6196;48.398;11.736;2024-02-26T06:26:08;13.10;;;9.30;;
12267;SDS011;6196;48.398;11.736;2024-02-26T06:28:36;17.47;;;10.07;;
12267;SDS011;6196;48.398;11.736;2024-02-26T06:31:06;13.00;;;9.37;;
12267;SDS011;6196;48.398;11.736;2024-02-26T06:33:33;12.03;;;9.43;;
12267;SDS011;6196;48.398;11.736;2024-02-26T06:36:01;11.93;;;9.67;;
12267;SDS011;6196;48.398;11.736;2024-02-26T06:38:28;13.97;;;9.37;;
12267;SDS011;6196;48.398;11.736;2024-02-26T06:40:54;11.57;;;9.20;;
12267;SDS011;6196;48.398;11.736;2024-02-26T06:43:22;13.43;;;9.23;;
12267;SDS011;6196;48.398;11.736;2024-02-26T06:45:48;14.23;;;9.87;;
12267;SDS011;6196;48.398;11.736;2024-02-26T06:48:15;14.87;;;10.70;;
12267;SDS011;6196;48.398;11.736;2024-02-26T06:50:43;14.17;;;10.77;;
12267;SDS011;6196;48.398;11.736;2024-02-26T06:53:10;13.40;;;9.83;;
12267;SDS011;6196;48.398;11.736;2024-02-26T06:55:37;15.03;;;9.83;;
12267;SDS011;6196;48.398;11.736;2024-02-26T06:58:06;13.40;;;9.77;;
12267;SDS011;6196;48.398;11.736;2024-02-26T07:00:33;14.67;;;10.60;;
12267;SDS011;6196;48.398;11.736;2024-02-26T07:03:00;14.27;;;10.27;;
12267;SDS011;6196;48.398;11.736;2024-02-26T07:05:27;14.87;;;10.90;;
12267;SDS011;6196;48.398;11.736;2024-02-26T07:07:54;13.93;;;10.43;;
12267;SDS011;6196;48.398;11.736;2024-02-26T07:10:21;12.33;;;9.77;;
12267;SDS011;6196;48.398;11.736;2024-02-26T07:12:48;17.93;;;11.43;;
12267;SDS011;6196;48.398;11.736;2024-02-26T07:15:15;13.47;;;11.03;;
12267;SDS011;6196;48.398;11.736;2024-02-26T07:17:42;14.70;;;10.63;;
12267;SDS011;6196;48.398;11.736;2024-02-26T07:20:13;14.87;;;11.23;;
12267;SDS011;6196;48.398;11.736;2024-02-26T07:22:40;12.47;;;9.63;;
12267;SDS011;6196;48.398;11.736;2024-02-26T07:25:08;14.67;;;10.17;;
12267;SDS011;6196;48.398;11.736;2024-02-26T07:27:39;13.03;;;10.50;;
12267;SDS011;6196;48.398;11.736;2024-02-26T07:30:07;13.73;;;9.50;;
12267;SDS011;6196;48.398;11.736;2024-02-26T07:32:35;15.07;;;9.67;;
12267;SDS011;6196;48.398;11.736;2024-02-26T07:35:02;15.00;;;10.40;;
12267;SDS011;6196;48.398;11.736;2024-02-26T07:37:30;11.40;;;9.33;;
12267;SDS011;6196;48.398;11.736;2024-02-26T07:39:57;13.63;;;10.17;;
12267;SDS011;6196;48.398;11.736;2024-02-26T07:42:24;12.97;;;9.87;;
12267;SDS011;6196;48.398;11.736;2024-02-26T07:44:51;12.60;;;10.30;;
12267;SDS011;6196;48.398;11.736;2024-02-26T07:47:19;14.20;;;9.73;;
12267;SDS011;6196;48.398;11.736;2024-02-26T07:49:46;12.87;;;9.23;;
12267;SDS011;6196;48.398;11.736;2024-02-26T07:52:13;14.90;;;9.87;;
12267;SDS011;6196;48.398;11.736;2024-02-26T07:54:40;14.23;;;10.20;;
12267;SDS011;6196;48.398;11.736;2024-02-26T07:57:07;12.73;;;10.07;;
12267;SDS011;6196;48.398;11.736;2024-02-26T07:59:34;11.00;;;9.17;;
12267;SDS011;6196;48.398;11.736;2024-02-26T08:02:01;11.27;;;9.33;;
12267;SDS011;6196;48.398;11.736;2024-02-26T08:04:29;11.37;;;9.00;;
12267;SDS011;6196;48.398;11.736;2024-02-26T08:06:57;11.53;;;8.83;;
12267;SDS011;6196;48.398;11.736;2024-02-26T08:09:24;10.10;;;8.27;;
12267;SDS011;6196;48.398;11.736;2024-02-26T08:11:51;12.23;;;8.93;;
12267;SDS011;6196;48.398;11.736;2024-02-26T08:14:18;10.20;;;8.43;;
12267;SDS011;6196;48.398;11.736;2024-02-26T08:16:45;9.67;;;8.10;;
12267;SDS011;6196;48.398;11.736;2024-02-26T08:19:12;9.33;;;8.03;;
12267;SDS011;6196;48.398;11.736;2024-02-26T08:21:41;9.13;;;8.07;;
12267;SDS011;6196;48.398;11.736;2024-02-26T08:24:08;9.37;;;7.77;;
12267;SDS011;6196;48.398;11.736;2024-02-26T08:26:36;10.17;;;8.57;;
12267;SDS011;6196;48.398;11.736;2024-02-26T08:29:03;10.43;;;9.10;;
12267;SDS011;6196;48.398;11.736;2024-02-26T08:31:30;9.73;;;8.17;;
12267;SDS011;6196;48.398;11.736;2024-02-26T08:33:56;11.13;;;7.60;;
12267;SDS011;6196;48.398;11.736;2024-02-26T08:36:25;12.13;;;9.00;;
12267;SDS011;6196;48.398;11.736;2024-02-26T08:38:52;9.53;;;8.23;;
12267;SDS011;6196;48.398;11.736;2024-02-26T08:41:19;9.77;;;8.10;;
12267;SDS011;6196;48.398;11.736;2024-02-26T08:43:46;9.67;;;8.30;;
12267;SDS011;6196;48.398;11.736;2024-02-26T08:46:13;9.23;;;7.83;;
12267;SDS011;6196;48.398;11.736;2024-02-26T08:48:40;9.30;;;7.47;;
12267;SDS011;6196;48.398;11.736;2024-02-26T08:51:08;9.03;;;7.40;;
12267;SDS011;6196;48.398;11.736;2024-02-26T08:53:35;11.10;;;8.27;;
12267;SDS011;6196;48.398;11.736;2024-02-26T08:56:09;9.90;;;7.73;;
12267;SDS011;6196;48.398;11.736;2024-02-26T08:58:44;8.47;;;7.57;;
12267;SDS011;6196;48.398;11.736;2024-02-26T09:01:15;8.60;;;7.27;;
12267;SDS011;6196;48.398;11.736;2024-02-26T09:03:42;9.03;;;7.47;;
12267;SDS011;6196;48.398;11.736;2024-02-26T09:06:09;7.97;;;7.07;;
12267;SDS011;6196;48.398;11.736;2024-02-26T09:08:38;8.77;;;7.80;;
12267;SDS011;6196;48.398;11.736;2024-02-26T09:11:05;9.60;;;7.40;;
12267;SDS011;6196;48.398;11.736;2024-02-26T09:13:32;10.03;;;8.23;;
12267;SDS011;6196;48.398;11.736;2024-02-26T09:15:59;10.50;;;8.30;;
12267;SDS011;6196;48.398;11.736;2024-02-26T09:18:26;9.33;;;7.70;;
12267;SDS011;6196;48.398;11.736;2024-02-26T09:20:55;9.67;;;7.63;;
12267;SDS011;6196;48.398;11.736;2024-02-26T09:23:22;8.67;;;7.33;;
12267;SDS011;6196;48.398;11.736;2024-02-26T09:25:49;9.40;;;7.40;;
12267;SDS011;6196;48.398;11.736;2024-02-26T09:28:16;10.03;;;7.87;;
12267;SDS011;6196;48.398;11.736;2024-02-26T09:30:43;9.90;;;8.07;;
12267;SDS011;6196;48.398;11.736;2024-02-26T09:33:11;8.47;;;7.30;;
12267;SDS011;6196;48.398;11.736;2024-02-26T09:35:40;8.27;;;7.33;;
12267;SDS011;6196;48.398;11.736;2024-02-26T09:38:07;9.37;;;7.83;;
12267;SDS011;6196;48.398;11.736;2024-02-26T09:40:35;9.83;;;7.53;;
12267;SDS011;6196;48.398;11.736;2024-02-26T09:43:04;8.00;;;7.00;;
12267;SDS011;6196;48.398;11.736;2024-02-26T09:45:32;8.40;;;7.30;;
12267;SDS011;6196;48.398;11.736;2024-02-26T09:48:01;8.07;;;7.10;;
12267;SDS011;6196;48.398;11.736;2024-02-26T09:50:31;9.20;;;6.90;;
12267;SDS011;6196;48.398;11.736;2024-02-26T09:52:58;9.50;;;6.80;;
12267;SDS011;6196;48.398;11.736;2024-02-26T09:55:28;8.07;;;7.10;;
12267;SDS011;6196;48.398;11.736;2024-02-26T09:57:55;8.57;;;6.77;;
12267;SDS011;6196;48.398;11.736;2024-02-26T10:00:24;7.07;;;5.60;;
12267;SDS011;6196;48.398;11.736;2024-02-26T10:02:56;7.33;;;6.03;;
12267;SDS011;6196;48.398;11.736;2024-02-26T10:05:25;7.47;;;5.90;;
12267;SDS011;6196;48.398;11.736;2024-02-26T10:07:53;6.03;;;5.23;;
12267;SDS011;6196;48.398;11.736;2024-02-26T10:10:22;5.60;;;5.00;;
12267;SDS011;6196;48.398;11.736;2024-02-26T10:12:49;6.57;;;5.27;;
12267;SDS011;6196;48.398;11.736;2024-02-26T10:15:16;6.57;;;5.27;;
12267;SDS011;6196;48.398;11.736;2024-02-26T10:17:43;5.40;;;4.90;;
12267;SDS011;6196;48.398;11.736;2024-02-26T10:20:14;5.43;;;4.53;;
12267;SDS011;6196;48.398;11.736;2024-02-26T10:22:50;4.80;;;4.03;;
12267;SDS011;6196;48.398;11.736;2024-02-26T10:25:18;4.10;;;3.63;;
12267;SDS011;6196;48.398;11.736;2024-02-26T10:27:45;4.93;;;4.17;;
12267;SDS011;6196;48.398;11.736;2024-02-26T10:32:45;6.70;;;4.70;;
12267;SDS011;6196;48.398;11.736;2024-02-26T10:35:14;6.63;;;4.80;;
12267;SDS011;6196;48.398;11.736;2024-02-26T10:37:44;7.83;;;5.20;;
12267;SDS011;6196;48.398;11.736;2024-02-26T10:40:11;4.60;;;4.10;;
12267;SDS011;6196;48.398;11.736;2024-02-26T10:42:42;5.77;;;4.43;;
12267;SDS011;6196;48.398;11.736;2024-02-26T10:45:12;5.37;;;4.03;;
12267;SDS011;6196;48.398;11.736;2024-02-26T10:47:40;3.73;;;3.33;;
12267;SDS011;6196;48.398;11.736;2024-02-26T10:50:08;4.70;;;4.13;;
12267;SDS011;6196;48.398;11.736;2024-02-26T10:52:36;4.33;;;3.57;;
12267;SDS011;6196;48.398;11.736;2024-02-26T10:55:07;4.80;;;3.60;;
12267;SDS011;6196;48.398;11.736;2024-02-26T10:57:39;3.43;;;3.13;;
12267;SDS011;6196;48.398;11.736;2024-02-26T11:00:08;4.20;;;3.50;;
12267;SDS011;6196;48.398;11.736;2024-02-26T11:02:40;5.20;;;3.20;;
12267;SDS011;6196;48.398;11.736;2024-02-26T11:05:08;3.93;;;2.70;;
12267;SDS011;6196;48.398;11.736;2024-02-26T11:07:35;3.13;;;2.47;;
12267;SDS011;6196;48.398;11.736;2024-02-26T11:10:04;3.87;;;2.87;;
12267;SDS011;6196;48.398;11.736;2024-02-26T11:12:33;4.53;;;2.97;;
12267;SDS011;6196;48.398;11.736;2024-02-26T11:15:04;4.07;;;2.73;;
12267;SDS011;6196;48.398;11.736;2024-02-26T11:17:32;4.17;;;3.07;;
12267;SDS011;6196;48.398;11.736;2024-02-26T11:20:01;2.87;;;2.63;;
12267;SDS011;6196;48.398;11.736;2024-02-26T11:22:32;3.17;;;2.80;;
12267;SDS011;6196;48.398;11.736;2024-02-26T11:24:59;2.83;;;2.63;;
12267;SDS011;6196;48.398;11.736;2024-02-26T11:27:29;3.47;;;3.03;;
12267;SDS011;6196;48.398;11.736;2024-02-26T11:30:03;2.90;;;2.60;;
12267;SDS011;6196;48.398;11.736;2024-02-26T11:32:35;3.00;;;2.40;;
12267;SDS011;6196;48.398;11.736;2024-02-26T11:35:04;3.27;;;2.60;;
12267;SDS011;6196;48.398;11.736;2024-02-26T11:37:33;2.53;;;2.33;;
12267;SDS011;6196;48.398;11.736;2024-02-26T11:40:15;3.60;;;2.37;;
12267;SDS011;6196;48.398;11.736;2024-02-26T11:42:44;4.30;;;2.77;;
12267;SDS011;6196;48.398;11.736;2024-02-26T11:50:47;3.60;;;2.20;;
12267;SDS011;6196;48.398;11.736;2024-02-26T11:53:29;2.90;;;2.60;;
12267;SDS011;6196;48.398;11.736;2024-02-26T11:59:10;2.73;;;2.50;;
12267;SDS011;6196;48.398;11.736;2024-02-26T12:04:11;2.50;;;2.30;;
12267;SDS011;6196;48.398;11.736;2024-02-26T12:06:51;2.87;;;2.60;;
12267;SDS011;6196;48.398;11.736;2024-02-26T12:09:33;3.07;;;2.40;;
12267;SDS011;6196;48.398;11.736;2024-02-26T12:12:08;2.57;;;1.97;;
12267;SDS011;6196;48.398;11.736;2024-02-26T12:14:51;2.90;;;2.57;;
12267;SDS011;6196;48.398;11.736;2024-02-26T12:17:20;2.40;;;2.20;;
12267;SDS011;6196;48.398;11.736;2024-02-26T12:19:52;2.80;;;2.37;;
12267;SDS011;6196;48.398;11.736;2024-02-26T12:22:20;2.90;;;2.23;;
12267;SDS011;6196;48.398;11.736;2024-02-26T12:24:47;2.63;;;2.10;;
12267;SDS011;6196;48.398;11.736;2024-02-26T12:27:24;4.60;;;2.43;;
12267;SDS011;6196;48.398;11.736;2024-02-26T12:29:52;2.47;;;2.27;;
12267;SDS011;6196;48.398;11.736;2024-02-26T12:32:19;2.50;;;2.10;;
12267;SDS011;6196;48.398;11.736;2024-02-26T12:34:46;3.13;;;1.93;;
12267;SDS011;6196;48.398;11.736;2024-02-26T12:37:14;2.43;;;2.13;;
12267;SDS011;6196;48.398;11.736;2024-02-26T12:39:41;1.90;;;1.80;;
12267;SDS011;6196;48.398;11.736;2024-02-26T12:42:09;1.83;;;1.60;;
12267;SDS011;6196;48.398;11.736;2024-02-26T12:44:36;2.10;;;1.90;;
12267;SDS011;6196;48.398;11.736;2024-02-26T12:47:04;1.87;;;1.77;;
12267;SDS011;6196;48.398;11.736;2024-02-26T12:49:31;3.70;;;1.97;;
12267;SDS011;6196;48.398;11.736;2024-02-26T12:51:59;1.77;;;1.67;;
12267;SDS011;6196;48.398;11.736;2024-02-26T12:54:29;5.90;;;2.00;;
12267;SDS011;6196;48.398;11.736;2024-02-26T12:57:01;3.00;;;1.83;;
12267;SDS011;6196;48.398;11.736;2024-02-26T12:59:29;2.40;;;2.20;;
12267;SDS011;6196;48.398;11.736;2024-02-26T13:01:57;2.47;;;2.20;;
12267;SDS011;6196;48.398;11.736;2024-02-26T13:04:24;3.00;;;2.70;;
12267;SDS011;6196;48.398;11.736;2024-02-26T13:06:57;4.57;;;3.33;;
12267;SDS011;6196;48.398;11.736;2024-02-26T13:09:33;3.63;;;3.23;;
12267;SDS011;6196;48.398;11.736;2024-02-26T13:12:03;7.30;;;4.00;;
12267;SDS011;6196;48.398;11.736;2024-02-26T13:14:34;4.83;;;4.20;;
12267;SDS011;6196;48.398;11.736;2024-02-26T13:17:02;4.53;;;3.80;;
12267;SDS011;6196;48.398;11.736;2024-02-26T13:19:30;4.67;;;4.03;;
12267;SDS011;6196;48.398;11.736;2024-02-26T13:22:04;4.10;;;3.33;;
12267;SDS011;6196;48.398;11.736;2024-02-26T13:24:33;3.67;;;3.30;;
12267;SDS011;6196;48.398;11.736;2024-02-26T13:27:01;3.30;;;3.00;;
12267;SDS011;6196;48.398;11.736;2024-02-26T13:29:31;5.03;;;2.93;;
12267;SDS011;6196;48.398;11.736;2024-02-26T13:31:58;2.97;;;2.60;;
12267;SDS011;6196;48.398;11.736;2024-02-26T13:34:28;2.87;;;2.57;;
12267;SDS011;6196;48.398;11.736;2024-02-26T13:36:57;3.13;;;2.83;;
12267;SDS011;6196;48.398;11.736;2024-02-26T13:39:24;2.10;;;1.90;;
12267;SDS011;6196;48.398;11.736;2024-02-26T13:41:54;3.23;;;2.00;;
12267;SDS011;6196;48.398;11.736;2024-02-26T13:44:21;2.57;;;2.10;;
12267;SDS011;6196;48.398;11.736;2024-02-26T13:46:50;2.10;;;1.90;;
12267;SDS011;6196;48.398;11.736;2024-02-26T13:49:17;2.93;;;2.20;;
12267;SDS011;6196;48.398;11.736;2024-02-26T13:51:44;2.87;;;1.80;;
12267;SDS011;6196;48.398;11.736;2024-02-26T13:54:11;3.97;;;2.23;;
12267;SDS011;6196;48.398;11.736;2024-02-26T13:56:40;2.17;;;1.63;;
12267;SDS011;6196;48.398;11.736;2024-02-26T13:59:10;1.97;;;1.77;;
12267;SDS011;6196;48.398;11.736;2024-02-26T14:01:37;1.93;;;1.73;;
12267;SDS011;6196;48.398;11.736;2024-02-26T14:04:04;1.97;;;1.77;;
12267;SDS011;6196;48.398;11.736;2024-02-26T14:06:32;1.90;;;1.60;;
12267;SDS011;6196;48.398;11.736;2024-02-26T14:08:59;1.73;;;1.60;;
12267;SDS011;6196;48.398;11.736;2024-02-26T14:11:26;1.60;;;1.50;;
12267;SDS011;6196;48.398;11.736;2024-02-26T14:13:55;2.37;;;1.40;;
12267;SDS011;6196;48.398;11.736;2024-02-26T14:16:22;3.90;;;1.97;;
12267;SDS011;6196;48.398;11.736;2024-02-26T14:18:49;1.77;;;1.40;;
12267;SDS011;6196;48.398;11.736;2024-02-26T14:21:16;2.17;;;1.60;;
12267;SDS011;6196;48.398;11.736;2024-02-26T14:23:43;3.23;;;1.63;;
12267;SDS011;6196;48.398;11.736;2024-02-26T14:26:10;1.93;;;1.37;;
12267;SDS011;6196;48.398;11.736;2024-02-26T14:28:38;2.20;;;1.43;;
12267;SDS011;6196;48.398;11.736;2024-02-26T14:31:05;1.50;;;1.40;;
12267;SDS011;6196;48.398;11.736;2024-02-26T14:33:38;1.53;;;1.37;;
12267;SDS011;6196;48.398;11.736;2024-02-26T14:36:08;1.90;;;1.43;;
12267;SDS011;6196;48.398;11.736;2024-02-26T14:38:36;2.53;;;1.30;;
12267;SDS011;6196;48.398;11.736;2024-02-26T14:41:03;1.63;;;1.40;;
12267;SDS011;6196;48.398;11.736;2024-02-26T14:43:30;2.07;;;1.70;;
12267;SDS011;6196;48.398;11.736;2024-02-26T14:45:58;2.27;;;2.07;;
12267;SDS011;6196;48.398;11.736;2024-02-26T14:48:25;1.60;;;1.50;;
12267;SDS011;6196;48.398;11.736;2024-02-26T14:50:53;2.40;;;2.20;;
12267;SDS011;6196;48.398;11.736;2024-02-26T14:53:20;1.37;;;1.27;;